createdAt,value
2017-06-06T00:00:09.834Z,15.34
2017-06-06T00:01:19.077Z,15.44
2017-06-06T00:02:28.589Z,15.36
2017-06-06T00:03:38.143Z,15.43
2017-06-06T00:04:47.035Z,15.38
2017-06-06T00:05:55.931Z,15.38
2017-06-06T00:07:04.820Z,15.35
2017-06-06T00:08:13.863Z,15.29
2017-06-06T00:09:23.398Z,15.32
2017-06-06T00:10:32.289Z,15.34
2017-06-06T00:11:41.182Z,15.23
2017-06-06T00:12:50.395Z,15.21
2017-06-06T00:13:59.438Z,15.27
2017-06-06T00:15:08.331Z,15.28
2017-06-06T00:16:17.544Z,15.31
2017-06-06T00:17:26.437Z,15.25
2017-06-06T00:18:35.337Z,15.29
2017-06-06T00:19:44.531Z,15.31
2017-06-06T00:20:53.421Z,15.27
2017-06-06T00:22:02.315Z,15.28
2017-06-06T00:23:11.205Z,15.19
2017-06-06T00:24:20.129Z,15.25
2017-06-06T00:25:29.347Z,15.27
2017-06-06T00:26:38.565Z,15.31
2017-06-06T00:27:47.455Z,15.32
2017-06-06T00:28:56.668Z,15.29
2017-06-06T00:30:05.562Z,15.29
2017-06-06T00:31:14.828Z,15.19
2017-06-06T00:32:24.044Z,15.09
2017-06-06T00:33:32.938Z,15.19
2017-06-06T00:34:42.487Z,15.19
2017-06-06T00:35:51.391Z,15.17
2017-06-06T00:37:00.440Z,15.09
2017-06-06T00:38:09.328Z,15.1
2017-06-06T00:39:18.873Z,15.14
2017-06-06T00:40:27.760Z,15.14
2017-06-06T00:41:36.650Z,15.1
2017-06-06T00:42:45.730Z,15.06
2017-06-06T00:43:54.945Z,15.11
2017-06-06T00:45:04.161Z,15.01
2017-06-06T00:46:13.067Z,14.99
2017-06-06T00:47:22.280Z,14.98
2017-06-06T00:48:31.170Z,15.13
2017-06-06T00:49:40.110Z,15.13
2017-06-06T00:50:49.340Z,15.01
2017-06-06T00:51:58.233Z,15.09
2017-06-06T00:53:07.125Z,14.98
2017-06-06T00:54:16.125Z,15.01
2017-06-06T00:55:25.027Z,14.99
2017-06-06T00:56:33.917Z,15.01
2017-06-06T00:57:43.132Z,14.95
2017-06-06T00:58:52.022Z,15.01
2017-06-06T01:00:01.338Z,14.94
2017-06-06T01:01:10.238Z,14.92
2017-06-06T01:02:19.134Z,14.84
2017-06-06T01:03:28.025Z,14.86
2017-06-06T01:04:36.910Z,14.94
2017-06-06T01:05:46.605Z,14.89
2017-06-06T01:06:55.496Z,14.88
2017-06-06T01:08:04.385Z,14.94
2017-06-06T01:09:13.297Z,14.8
2017-06-06T01:10:22.513Z,14.86
2017-06-06T01:11:31.510Z,14.78
2017-06-06T01:12:40.398Z,14.8
2017-06-06T01:13:49.614Z,14.89
2017-06-06T01:14:58.509Z,14.75
2017-06-06T01:16:07.396Z,14.78
2017-06-06T01:17:16.693Z,14.77
2017-06-06T01:18:25.586Z,14.78
2017-06-06T01:19:34.476Z,14.64
2017-06-06T01:20:43.364Z,14.64
2017-06-06T01:21:52.252Z,14.73
2017-06-06T01:23:01.141Z,14.7
2017-06-06T01:24:10.685Z,14.72
2017-06-06T01:25:19.898Z,14.72
2017-06-06T01:26:28.789Z,14.78
2017-06-06T01:27:37.682Z,14.68
2017-06-06T01:28:46.576Z,14.77
2017-06-06T01:29:55.465Z,14.72
2017-06-06T01:31:04.681Z,14.72
2017-06-06T01:32:13.899Z,14.6
2017-06-06T01:33:22.793Z,14.64
2017-06-06T01:34:32.025Z,14.64
2017-06-06T01:35:40.924Z,14.68
2017-06-06T01:36:50.138Z,14.57
2017-06-06T01:37:59.025Z,14.58
2017-06-06T01:39:08.240Z,14.64
2017-06-06T01:40:17.556Z,14.54
2017-06-06T01:41:26.444Z,14.52
2017-06-06T01:42:35.337Z,14.6
2017-06-06T01:43:44.231Z,14.61
2017-06-06T01:44:53.448Z,14.62
2017-06-06T01:46:03.309Z,14.55
2017-06-06T01:47:12.204Z,14.54
2017-06-06T01:48:21.414Z,14.54
2017-06-06T01:49:30.310Z,14.52
2017-06-06T01:50:39.525Z,14.58
2017-06-06T01:51:49.037Z,14.52
2017-06-06T01:52:58.249Z,14.51
2017-06-06T01:54:07.147Z,14.55
2017-06-06T01:55:16.358Z,14.52
2017-06-06T01:56:25.577Z,14.51
2017-06-06T01:57:34.467Z,14.51
2017-06-06T01:58:43.355Z,14.43
2017-06-06T01:59:52.571Z,14.46
2017-06-06T02:01:01.455Z,14.51
2017-06-06T02:02:10.343Z,14.45
2017-06-06T02:03:19.607Z,14.35
2017-06-06T02:04:28.819Z,14.35
2017-06-06T02:05:37.708Z,14.29
2017-06-06T02:06:46.922Z,14.32
2017-06-06T02:07:55.818Z,14.36
2017-06-06T02:09:05.233Z,14.27
2017-06-06T02:10:14.120Z,14.29
2017-06-06T02:11:23.013Z,14.29
2017-06-06T02:12:31.903Z,14.36
2017-06-06T02:13:40.792Z,14.25
2017-06-06T02:14:50.156Z,14.28
2017-06-06T02:15:59.369Z,14.27
2017-06-06T02:17:08.262Z,14.33
2017-06-06T02:18:17.157Z,14.24
2017-06-06T02:19:26.046Z,14.2
2017-06-06T02:20:34.937Z,14.14
2017-06-06T02:21:44.157Z,14.17
2017-06-06T02:22:53.044Z,14.15
2017-06-06T02:24:02.257Z,14.14
2017-06-06T02:25:11.149Z,14.1
2017-06-06T02:26:20.196Z,14.17
2017-06-06T02:27:29.087Z,14.14
2017-06-06T02:28:37.980Z,14.1
2017-06-06T02:29:46.866Z,14.1
2017-06-06T02:30:55.762Z,14.1
2017-06-06T02:32:05.129Z,14.14
2017-06-06T02:33:14.027Z,14.15
2017-06-06T02:34:23.241Z,14.03
2017-06-06T02:35:32.456Z,14.07
2017-06-06T02:36:41.356Z,14.06
2017-06-06T02:37:50.247Z,14.04
2017-06-06T02:38:59.470Z,14.04
2017-06-06T02:40:09.009Z,14.07
2017-06-06T02:41:18.221Z,14.09
2017-06-06T02:42:27.126Z,14.1
2017-06-06T02:43:36.019Z,14.04
2017-06-06T02:44:45.239Z,14.07
2017-06-06T02:45:54.125Z,13.99
2017-06-06T02:47:03.672Z,14
2017-06-06T02:48:12.559Z,13.96
2017-06-06T02:49:21.746Z,14
2017-06-06T02:50:30.633Z,13.91
2017-06-06T02:51:39.522Z,13.92
2017-06-06T02:52:48.411Z,13.85
2017-06-06T02:53:57.627Z,13.95
2017-06-06T02:55:06.669Z,14.02
2017-06-06T02:56:15.559Z,13.89
2017-06-06T02:57:24.448Z,13.97
2017-06-06T02:58:33.662Z,14.04
2017-06-06T02:59:42.548Z,13.89
2017-06-06T03:00:51.587Z,13.91
2017-06-06T03:02:00.475Z,13.99
2017-06-06T03:03:09.367Z,13.92
2017-06-06T03:04:18.578Z,13.95
2017-06-06T03:05:27.470Z,13.92
2017-06-06T03:06:36.663Z,13.92
2017-06-06T03:07:45.555Z,13.88
2017-06-06T03:08:54.479Z,13.91
2017-06-06T03:10:03.703Z,13.91
2017-06-06T03:11:12.595Z,13.89
2017-06-06T03:12:22.135Z,13.95
2017-06-06T03:13:31.350Z,13.85
2017-06-06T03:14:40.560Z,13.79
2017-06-06T03:15:49.451Z,13.82
2017-06-06T03:16:58.337Z,13.77
2017-06-06T03:18:07.257Z,13.82
2017-06-06T03:19:16.145Z,13.89
2017-06-06T03:20:25.363Z,13.82
2017-06-06T03:21:34.253Z,13.79
2017-06-06T03:22:43.140Z,13.81
2017-06-06T03:23:52.655Z,13.81
2017-06-06T03:25:01.544Z,13.79
2017-06-06T03:26:10.440Z,13.91
2017-06-06T03:27:19.331Z,13.91
2017-06-06T03:28:28.218Z,13.79
2017-06-06T03:29:37.366Z,13.79
2017-06-06T03:30:46.272Z,13.85
2017-06-06T03:31:55.162Z,13.84
2017-06-06T03:33:04.053Z,13.79
2017-06-06T03:34:13.592Z,13.78
2017-06-06T03:35:22.484Z,13.77
2017-06-06T03:36:31.372Z,13.88
2017-06-06T03:37:40.264Z,13.79
2017-06-06T03:38:49.154Z,13.78
2017-06-06T03:39:58.042Z,13.81
2017-06-06T03:41:07.081Z,13.89
2017-06-06T03:42:16.290Z,13.79
2017-06-06T03:43:25.182Z,13.82
2017-06-06T03:44:34.072Z,13.82
2017-06-06T03:45:42.960Z,13.82
2017-06-06T03:46:52.003Z,13.69
2017-06-06T03:48:00.890Z,13.82
2017-06-06T03:49:09.781Z,13.78
2017-06-06T03:50:18.679Z,13.88
2017-06-06T03:51:27.565Z,13.91
2017-06-06T03:52:36.830Z,13.79
2017-06-06T03:53:45.726Z,13.81
2017-06-06T03:54:54.615Z,13.82
2017-06-06T03:56:03.507Z,13.84
2017-06-06T03:57:12.398Z,13.81
2017-06-06T03:58:21.384Z,13.92
2017-06-06T03:59:30.274Z,13.84
2017-06-06T04:00:39.160Z,13.88
2017-06-06T04:01:48.376Z,13.85
2017-06-06T04:02:57.587Z,13.88
2017-06-06T04:04:06.631Z,13.87
2017-06-06T04:05:15.521Z,13.89
2017-06-06T04:06:24.738Z,13.88
2017-06-06T04:07:33.950Z,13.92
2017-06-06T04:08:42.838Z,13.84
2017-06-06T04:09:52.474Z,13.87
2017-06-06T04:11:01.367Z,13.95
2017-06-06T04:12:10.908Z,13.95
2017-06-06T04:13:20.119Z,13.92
2017-06-06T04:14:29.008Z,13.91
2017-06-06T04:15:38.203Z,14.06
2017-06-06T04:16:47.091Z,14.02
2017-06-06T04:17:56.306Z,14.04
2017-06-06T04:19:05.200Z,14.04
2017-06-06T04:20:14.086Z,13.99
2017-06-06T04:21:23.125Z,14.04
2017-06-06T04:22:32.339Z,14.09
2017-06-06T04:23:41.228Z,14.07
2017-06-06T04:24:50.119Z,14.14
2017-06-06T04:25:59.333Z,14.1
2017-06-06T04:27:08.224Z,14.07
2017-06-06T04:28:17.121Z,14.12
2017-06-06T04:29:26.019Z,14.12
2017-06-06T04:30:34.907Z,14.17
2017-06-06T04:31:44.119Z,14.12
2017-06-06T04:32:53.015Z,14.18
2017-06-06T04:34:02.229Z,14.29
2017-06-06T04:35:11.449Z,14.25
2017-06-06T04:36:20.661Z,14.27
2017-06-06T04:37:29.585Z,14.28
2017-06-06T04:38:38.480Z,14.36
2017-06-06T04:39:47.373Z,14.29
2017-06-06T04:40:56.268Z,14.32
2017-06-06T04:42:05.157Z,14.27
2017-06-06T04:43:14.376Z,14.25
2017-06-06T04:44:23.419Z,14.29
2017-06-06T04:45:32.313Z,14.33
2017-06-06T04:46:41.203Z,14.35
2017-06-06T04:47:50.093Z,14.4
2017-06-06T04:48:58.987Z,14.5
2017-06-06T04:50:07.882Z,14.54
2017-06-06T04:51:17.098Z,14.52
2017-06-06T04:52:26.315Z,14.5
2017-06-06T04:53:35.206Z,14.6
2017-06-06T04:54:44.425Z,14.58
2017-06-06T04:55:53.418Z,14.6
2017-06-06T04:57:02.310Z,14.65
2017-06-06T04:58:11.526Z,14.64
2017-06-06T04:59:20.417Z,14.55
2017-06-06T05:00:29.313Z,14.51
2017-06-06T05:01:38.681Z,14.57
2017-06-06T05:02:47.579Z,14.58
2017-06-06T05:03:56.471Z,14.6
2017-06-06T05:05:05.366Z,14.65
2017-06-06T05:06:14.257Z,14.62
2017-06-06T05:07:23.552Z,14.8
2017-06-06T05:08:32.772Z,14.81
2017-06-06T05:09:41.665Z,14.89
2017-06-06T05:10:50.561Z,14.77
2017-06-06T05:11:59.777Z,14.81
2017-06-06T05:13:08.818Z,14.78
2017-06-06T05:14:17.720Z,14.89
2017-06-06T05:15:26.613Z,14.94
2017-06-06T05:16:35.506Z,14.88
2017-06-06T05:17:44.399Z,14.98
2017-06-06T05:18:53.349Z,14.94
2017-06-06T05:20:02.242Z,14.98
2017-06-06T05:21:11.466Z,15.06
2017-06-06T05:22:20.356Z,15.03
2017-06-06T05:23:29.580Z,15.13
2017-06-06T05:24:39.324Z,15.11
2017-06-06T05:25:48.215Z,15.27
2017-06-06T05:26:57.439Z,15.19
2017-06-06T05:28:06.340Z,15.29
2017-06-06T05:29:15.229Z,15.28
2017-06-06T05:30:24.172Z,15.21
2017-06-06T05:31:33.721Z,15.29
2017-06-06T05:32:42.617Z,15.2
2017-06-06T05:33:51.514Z,15.35
2017-06-06T05:35:00.732Z,15.32
2017-06-06T05:36:10.000Z,15.32
2017-06-06T05:37:18.941Z,15.35
2017-06-06T05:38:28.106Z,15.35
2017-06-06T05:39:37.120Z,15.36
2017-06-06T05:40:46.486Z,15.51
2017-06-06T05:41:56.110Z,15.54
2017-06-06T05:43:05.034Z,15.53
2017-06-06T05:44:13.927Z,15.54
2017-06-06T05:45:22.817Z,15.68
2017-06-06T05:46:31.709Z,15.65
2017-06-06T05:47:40.853Z,15.76
2017-06-06T05:48:50.070Z,15.68
2017-06-06T05:49:58.963Z,15.78
2017-06-06T05:51:08.181Z,15.86
2017-06-06T05:52:17.071Z,15.78
2017-06-06T05:53:26.013Z,15.8
2017-06-06T05:54:34.906Z,15.84
2017-06-06T05:55:43.808Z,15.86
2017-06-06T05:56:53.031Z,16.01
2017-06-06T05:58:01.926Z,15.94
2017-06-06T05:59:11.142Z,15.96
2017-06-06T06:00:20.358Z,15.92
2017-06-06T06:01:29.291Z,15.93
2017-06-06T06:02:38.835Z,15.84
2017-06-06T06:03:47.741Z,15.9
2017-06-06T06:04:56.632Z,15.94
2017-06-06T06:06:05.530Z,15.93
2017-06-06T06:07:14.441Z,16
2017-06-06T06:08:23.329Z,15.97
2017-06-06T06:09:32.544Z,15.9
2017-06-06T06:10:42.089Z,15.89
2017-06-06T06:11:51.302Z,15.89
2017-06-06T06:13:00.196Z,15.96
2017-06-06T06:14:09.088Z,15.96
2017-06-06T06:15:18.311Z,15.93
2017-06-06T06:16:27.202Z,16.05
2017-06-06T06:17:36.421Z,16.01
2017-06-06T06:18:45.319Z,16.04
2017-06-06T06:19:54.211Z,16.05
2017-06-06T06:21:03.103Z,16.09
2017-06-06T06:22:12.329Z,16.21
2017-06-06T06:23:22.200Z,16.23
2017-06-06T06:24:31.241Z,16.27
2017-06-06T06:25:40.139Z,16.33
2017-06-06T06:26:49.361Z,16.35
2017-06-06T06:27:58.256Z,16.46
2017-06-06T06:29:07.154Z,16.56
2017-06-06T06:30:16.300Z,16.49
2017-06-06T06:31:25.194Z,16.66
2017-06-06T06:32:34.429Z,16.61
2017-06-06T06:33:43.648Z,16.68
2017-06-06T06:34:52.863Z,16.75
2017-06-06T06:36:01.858Z,16.75
2017-06-06T06:37:10.755Z,16.78
2017-06-06T06:38:19.649Z,16.75
2017-06-06T06:39:28.547Z,16.76
2017-06-06T06:40:37.443Z,16.82
2017-06-06T06:41:46.586Z,16.83
2017-06-06T06:42:55.833Z,16.91
2017-06-06T06:44:04.742Z,16.91
2017-06-06T06:45:13.696Z,16.88
2017-06-06T06:46:22.591Z,16.89
2017-06-06T06:47:31.635Z,16.96
2017-06-06T06:48:40.528Z,16.96
2017-06-06T06:49:49.431Z,17.08
2017-06-06T06:50:58.337Z,17.06
2017-06-06T06:52:07.556Z,17.18
2017-06-06T06:53:16.650Z,17.19
2017-06-06T06:54:25.549Z,17.16
2017-06-06T06:55:34.447Z,17.22
2017-06-06T06:56:43.671Z,17.26
2017-06-06T06:57:53.214Z,17.3
2017-06-06T06:59:02.359Z,17.36
2017-06-06T07:00:11.579Z,17.4
2017-06-06T07:01:20.477Z,17.43
2017-06-06T07:02:29.704Z,17.52
2017-06-06T07:03:38.921Z,17.55
2017-06-06T07:04:47.968Z,17.62
2017-06-06T07:05:56.871Z,17.68
2017-06-06T07:07:06.092Z,17.72
2017-06-06T07:08:15.031Z,17.74
2017-06-06T07:09:23.928Z,17.77
2017-06-06T07:10:32.848Z,17.9
2017-06-06T07:11:41.785Z,17.87
2017-06-06T07:12:50.706Z,17.95
2017-06-06T07:13:59.602Z,17.96
2017-06-06T07:15:08.822Z,17.92
2017-06-06T07:16:18.204Z,17.97
2017-06-06T07:17:27.101Z,17.97
2017-06-06T07:18:36.325Z,18.05
2017-06-06T07:19:45.544Z,18.1
2017-06-06T07:20:54.451Z,18.18
2017-06-06T07:22:03.819Z,18.26
2017-06-06T07:23:13.073Z,18.18
2017-06-06T07:24:22.302Z,18.18
2017-06-06T07:25:31.215Z,18.17
2017-06-06T07:26:40.330Z,18.2
2017-06-06T07:27:49.544Z,18.18
2017-06-06T07:28:58.444Z,18.3
2017-06-06T07:30:07.348Z,18.36
2017-06-06T07:31:16.268Z,18.47
2017-06-06T07:32:25.172Z,18.51
2017-06-06T07:33:34.413Z,18.55
2017-06-06T07:34:43.971Z,18.57
2017-06-06T07:35:52.899Z,18.6
2017-06-06T07:37:01.833Z,18.67
2017-06-06T07:38:10.792Z,18.63
2017-06-06T07:39:19.688Z,18.7
2017-06-06T07:40:28.674Z,18.69
2017-06-06T07:41:37.973Z,18.78
2017-06-06T07:42:47.242Z,18.81
2017-06-06T07:43:56.136Z,18.9
2017-06-06T07:45:05.144Z,18.85
2017-06-06T07:46:14.047Z,18.98
2017-06-06T07:47:22.963Z,18.85
2017-06-06T07:48:32.308Z,18.94
2017-06-06T07:49:42.336Z,19.13
2017-06-06T07:50:51.554Z,19.11
2017-06-06T07:52:00.456Z,19.08
2017-06-06T07:53:09.371Z,19.06
2017-06-06T07:54:18.284Z,19.16
2017-06-06T07:55:27.280Z,19.29
2017-06-06T07:56:36.815Z,19.29
2017-06-06T07:57:46.396Z,19.36
2017-06-06T07:58:55.315Z,19.59
2017-06-06T08:00:04.488Z,19.59
2017-06-06T08:01:13.685Z,19.65
2017-06-06T08:02:23.315Z,19.56
2017-06-06T08:03:32.259Z,19.62
2017-06-06T08:04:41.194Z,19.69
2017-06-06T08:05:50.095Z,19.84
2017-06-06T08:06:58.993Z,19.98
2017-06-06T08:08:07.938Z,20.05
2017-06-06T08:09:17.159Z,20.13
2017-06-06T08:10:26.052Z,20.02
2017-06-06T08:11:35.272Z,20.05
2017-06-06T08:12:44.166Z,20.08
2017-06-06T08:13:53.362Z,20.13
2017-06-06T08:15:02.256Z,20.06
2017-06-06T08:16:11.153Z,20.02
2017-06-06T08:17:20.370Z,19.92
2017-06-06T08:18:29.268Z,20.1
2017-06-06T08:19:39.022Z,20.08
2017-06-06T08:20:48.250Z,20.1
2017-06-06T08:21:57.159Z,19.99
2017-06-06T08:23:06.060Z,20.06
2017-06-06T08:24:14.959Z,20.06
2017-06-06T08:25:23.951Z,20.1
2017-06-06T08:26:33.194Z,20.05
2017-06-06T08:27:42.103Z,20.2
2017-06-06T08:28:50.998Z,20.23
2017-06-06T08:29:59.890Z,20.31
2017-06-06T08:31:08.938Z,20.36
2017-06-06T08:32:18.179Z,20.52
2017-06-06T08:33:27.078Z,20.62
2017-06-06T08:34:36.342Z,20.69
2017-06-06T08:35:45.241Z,20.74
2017-06-06T08:36:54.849Z,20.84
2017-06-06T08:38:03.743Z,20.92
2017-06-06T08:39:12.637Z,20.92
2017-06-06T08:40:21.538Z,20.88
2017-06-06T08:41:31.090Z,20.88
2017-06-06T08:42:40.101Z,20.94
2017-06-06T08:43:49.329Z,20.99
2017-06-06T08:44:58.223Z,21.06
2017-06-06T08:46:07.452Z,21.16
2017-06-06T08:47:16.405Z,21.19
2017-06-06T08:48:25.356Z,21.25
2017-06-06T08:49:35.253Z,21.25
2017-06-06T08:50:44.801Z,21.28
2017-06-06T08:51:53.710Z,21.32
2017-06-06T08:53:02.603Z,21.34
2017-06-06T08:54:12.451Z,21.32
2017-06-06T08:55:21.354Z,21.29
2017-06-06T08:56:30.320Z,21.4
2017-06-06T08:57:39.541Z,21.43
2017-06-06T08:58:48.439Z,21.58
2017-06-06T08:59:57.495Z,21.61
2017-06-06T09:01:06.702Z,21.74
2017-06-06T09:02:15.606Z,21.77
2017-06-06T09:03:24.502Z,21.79
2017-06-06T09:04:33.406Z,21.79
2017-06-06T09:05:42.506Z,21.69
2017-06-06T09:06:51.406Z,21.69
2017-06-06T09:08:00.302Z,21.64
2017-06-06T09:09:09.203Z,21.82
2017-06-06T09:10:18.749Z,21.8
2017-06-06T09:11:27.700Z,21.88
2017-06-06T09:12:36.608Z,22
2017-06-06T09:13:45.503Z,21.84
2017-06-06T09:14:54.409Z,21.83
2017-06-06T09:16:03.317Z,21.84
2017-06-06T09:17:12.540Z,21.88
2017-06-06T09:18:21.826Z,21.82
2017-06-06T09:19:31.069Z,21.82
2017-06-06T09:20:40.014Z,21.8
2017-06-06T09:21:48.917Z,21.91
2017-06-06T09:22:58.349Z,22.02
2017-06-06T09:24:07.900Z,22.07
2017-06-06T09:25:16.799Z,22.12
2017-06-06T09:26:26.024Z,22.05
2017-06-06T09:27:35.254Z,21.88
2017-06-06T09:28:44.212Z,21.92
2017-06-06T09:29:53.134Z,22.03
2017-06-06T09:31:02.037Z,21.96
2017-06-06T09:32:10.952Z,21.99
2017-06-06T09:33:19.875Z,21.96
2017-06-06T09:34:28.831Z,21.92
2017-06-06T09:35:37.767Z,22
2017-06-06T09:36:47.323Z,22.06
2017-06-06T09:37:56.245Z,22
2017-06-06T09:39:05.142Z,22.17
2017-06-06T09:40:14.469Z,22.24
2017-06-06T09:41:23.691Z,22.2
2017-06-06T09:42:32.607Z,22.27
2017-06-06T09:43:41.831Z,22.24
2017-06-06T09:44:50.757Z,22.22
2017-06-06T09:45:59.706Z,22.17
2017-06-06T09:47:08.620Z,22.27
2017-06-06T09:48:17.850Z,22.24
2017-06-06T09:49:26.748Z,22.24
2017-06-06T09:50:35.973Z,22.37
2017-06-06T09:51:44.925Z,22.45
2017-06-06T09:52:54.152Z,22.45
2017-06-06T09:54:03.051Z,22.39
2017-06-06T09:55:11.948Z,22.42
2017-06-06T09:56:20.848Z,22.3
2017-06-06T09:57:29.809Z,22.36
2017-06-06T09:58:39.032Z,22.46
2017-06-06T09:59:47.931Z,22.43
2017-06-06T10:00:56.827Z,22.35
2017-06-06T10:02:06.053Z,22.35
2017-06-06T10:03:15.106Z,22.45
2017-06-06T10:04:24.009Z,22.46
2017-06-06T10:05:33.233Z,22.57
2017-06-06T10:06:42.132Z,22.64
2017-06-06T10:07:51.679Z,22.65
2017-06-06T10:09:01.037Z,22.61
2017-06-06T10:10:09.939Z,22.75
2017-06-06T10:11:18.842Z,22.76
2017-06-06T10:12:28.072Z,22.75
2017-06-06T10:13:37.302Z,22.79
2017-06-06T10:14:46.606Z,22.7
2017-06-06T10:15:55.508Z,22.76
2017-06-06T10:17:04.740Z,22.88
2017-06-06T10:18:13.646Z,22.9
2017-06-06T10:19:22.870Z,22.94
2017-06-06T10:20:32.198Z,23.07
2017-06-06T10:21:41.096Z,22.95
2017-06-06T10:22:49.996Z,23.01
2017-06-06T10:23:58.897Z,22.98
2017-06-06T10:25:08.120Z,23.04
2017-06-06T10:26:17.342Z,23.01
2017-06-06T10:27:26.260Z,23.15
2017-06-06T10:28:35.157Z,22.97
2017-06-06T10:29:44.055Z,22.94
2017-06-06T10:30:53.280Z,22.97
2017-06-06T10:32:02.280Z,22.86
2017-06-06T10:33:11.504Z,22.88
2017-06-06T10:34:20.400Z,22.75
2017-06-06T10:35:29.299Z,22.75
2017-06-06T10:36:38.198Z,22.73
2017-06-06T10:37:47.094Z,22.88
2017-06-06T10:38:55.990Z,22.85
2017-06-06T10:40:04.887Z,22.85
2017-06-06T10:41:13.825Z,22.85
2017-06-06T10:42:23.097Z,22.88
2017-06-06T10:43:32.471Z,22.85
2017-06-06T10:44:41.370Z,22.9
2017-06-06T10:45:50.593Z,22.95
2017-06-06T10:46:59.815Z,23.02
2017-06-06T10:48:09.040Z,23.07
2017-06-06T10:49:18.087Z,23.09
2017-06-06T10:50:26.986Z,23.01
2017-06-06T10:51:35.898Z,23.02
2017-06-06T10:52:44.805Z,22.98
2017-06-06T10:53:53.706Z,23.04
2017-06-06T10:55:02.603Z,23.07
2017-06-06T10:56:11.505Z,23.05
2017-06-06T10:57:20.405Z,23.12
2017-06-06T10:58:29.306Z,23.16
2017-06-06T10:59:38.532Z,23.23
2017-06-06T11:00:47.906Z,23.2
2017-06-06T11:01:57.130Z,23.22
2017-06-06T11:03:06.028Z,23.17
2017-06-06T11:04:14.931Z,23.19
2017-06-06T11:05:24.153Z,23.09
2017-06-06T11:06:33.389Z,23.17
2017-06-06T11:07:42.288Z,23.27
2017-06-06T11:08:51.189Z,23.32
2017-06-06T11:10:00.088Z,23.38
2017-06-06T11:11:09.000Z,23.51
2017-06-06T11:12:18.060Z,23.53
2017-06-06T11:13:27.607Z,23.53
2017-06-06T11:14:36.506Z,23.36
2017-06-06T11:15:45.403Z,23.35
2017-06-06T11:16:54.950Z,23.43
2017-06-06T11:18:04.002Z,23.5
2017-06-06T11:19:12.900Z,23.47
2017-06-06T11:20:21.801Z,23.58
2017-06-06T11:21:30.709Z,23.58
2017-06-06T11:22:39.938Z,23.61
2017-06-06T11:23:49.515Z,23.61
2017-06-06T11:24:59.064Z,23.54
2017-06-06T11:26:07.965Z,23.38
2017-06-06T11:27:16.870Z,23.42
2017-06-06T11:28:26.095Z,23.39
2017-06-06T11:29:35.698Z,23.19
2017-06-06T11:30:44.923Z,23.22
2017-06-06T11:31:53.834Z,23.15
2017-06-06T11:33:02.737Z,23.13
2017-06-06T11:34:11.635Z,23.07
2017-06-06T11:35:21.010Z,23.04
2017-06-06T11:36:29.906Z,22.86
2017-06-06T11:37:38.803Z,22.79
2017-06-06T11:38:47.700Z,22.76
2017-06-06T11:39:56.600Z,22.72
2017-06-06T11:41:05.874Z,22.67
2017-06-06T11:42:14.773Z,22.61
2017-06-06T11:43:23.680Z,22.58
2017-06-06T11:44:32.580Z,22.51
2017-06-06T11:45:41.809Z,22.45
2017-06-06T11:46:50.861Z,22.37
2017-06-06T11:48:00.081Z,22.18
2017-06-06T11:49:08.976Z,22.12
2017-06-06T11:50:18.213Z,21.99
2017-06-06T11:51:27.439Z,21.9
2017-06-06T11:52:36.338Z,21.9
2017-06-06T11:53:45.239Z,21.86
2017-06-06T11:54:54.478Z,21.8
2017-06-06T11:56:03.705Z,21.92
2017-06-06T11:57:12.604Z,21.91
2017-06-06T11:58:21.603Z,21.77
2017-06-06T11:59:30.507Z,21.79
2017-06-06T12:00:39.455Z,21.74
2017-06-06T12:01:48.358Z,21.69
2017-06-06T12:02:57.259Z,21.68
2017-06-06T12:04:06.593Z,21.79
2017-06-06T12:05:15.819Z,21.91
2017-06-06T12:06:24.728Z,21.92
2017-06-06T12:07:33.635Z,21.99
2017-06-06T12:08:42.856Z,21.91
2017-06-06T12:09:52.054Z,21.82
2017-06-06T12:11:01.272Z,21.9
2017-06-06T12:12:10.494Z,21.92
2017-06-06T12:13:19.393Z,22.07
2017-06-06T12:14:28.618Z,22.07
2017-06-06T12:15:37.519Z,22.2
2017-06-06T12:16:46.418Z,22.17
2017-06-06T12:17:55.963Z,22.07
2017-06-06T12:19:04.860Z,22.2
2017-06-06T12:20:13.807Z,22.37
2017-06-06T12:21:23.531Z,22.3
2017-06-06T12:22:32.437Z,22.39
2017-06-06T12:23:41.670Z,22.37
2017-06-06T12:24:50.571Z,22.47
2017-06-06T12:25:59.476Z,22.33
2017-06-06T12:27:08.737Z,22.37
2017-06-06T12:28:17.666Z,22.31
2017-06-06T12:29:26.593Z,22.2
2017-06-06T12:30:35.815Z,22.3
2017-06-06T12:31:44.729Z,22.3
2017-06-06T12:32:53.882Z,22.33
2017-06-06T12:34:02.796Z,22.28
2017-06-06T12:35:11.695Z,22.27
2017-06-06T12:36:20.923Z,22.37
2017-06-06T12:37:29.841Z,22.42
2017-06-06T12:38:39.002Z,22.3
2017-06-06T12:39:48.226Z,22.35
2017-06-06T12:40:57.127Z,22.25
2017-06-06T12:42:06.035Z,22.37
2017-06-06T12:43:15.264Z,22.4
2017-06-06T12:44:24.422Z,22.58
2017-06-06T12:45:33.319Z,22.47
2017-06-06T12:46:42.230Z,22.61
2017-06-06T12:47:51.135Z,22.76
2017-06-06T12:49:00.034Z,22.82
2017-06-06T12:50:09.239Z,22.98
2017-06-06T12:51:18.143Z,23.2
2017-06-06T12:52:27.047Z,23.31
2017-06-06T12:53:36.287Z,23.61
2017-06-06T12:54:45.185Z,23.31
2017-06-06T12:55:54.616Z,23.28
2017-06-06T12:57:03.533Z,23.09
2017-06-06T12:58:12.435Z,22.92
2017-06-06T12:59:21.345Z,23.01
2017-06-06T13:00:30.259Z,22.97
2017-06-06T13:01:39.167Z,22.94
2017-06-06T13:02:48.394Z,22.79
2017-06-06T13:03:57.298Z,22.75
2017-06-06T13:05:06.526Z,22.54
2017-06-06T13:06:16.077Z,22.42
2017-06-06T13:07:25.697Z,22.36
2017-06-06T13:08:34.598Z,22.27
2017-06-06T13:09:43.499Z,22.21
2017-06-06T13:10:52.397Z,22.06
2017-06-06T13:12:01.293Z,21.96
2017-06-06T13:13:10.296Z,21.86
2017-06-06T13:14:19.521Z,20.89
2017-06-06T13:15:28.622Z,19.91
2017-06-06T13:16:37.561Z,19.07
2017-06-06T13:17:46.514Z,18.55
2017-06-06T13:18:56.260Z,18.23
2017-06-06T13:20:05.159Z,17.92
2017-06-06T13:21:14.383Z,17.75
2017-06-06T13:22:23.281Z,17.7
2017-06-06T13:23:32.178Z,17.46
2017-06-06T13:24:41.875Z,17.38
2017-06-06T13:25:51.093Z,17.21
2017-06-06T13:26:59.991Z,17.06
2017-06-06T13:28:08.893Z,16.93
2017-06-06T13:29:17.795Z,16.94
2017-06-06T13:30:26.741Z,16.96
2017-06-06T13:31:36.283Z,16.93
2017-06-06T13:32:45.191Z,16.91
2017-06-06T13:33:54.124Z,16.98
2017-06-06T13:35:03.017Z,17.15
2017-06-06T13:36:12.343Z,17.18
2017-06-06T13:37:21.242Z,17.14
2017-06-06T13:38:30.144Z,17.07
2017-06-06T13:39:39.042Z,17.07
2017-06-06T13:40:48.264Z,17.06
2017-06-06T13:41:57.317Z,17.11
2017-06-06T13:43:06.540Z,17.06
2017-06-06T13:44:15.438Z,17.26
2017-06-06T13:45:24.661Z,17.4
2017-06-06T13:46:33.556Z,17.56
2017-06-06T13:47:42.927Z,17.54
2017-06-06T13:48:52.201Z,17.66
2017-06-06T13:50:01.098Z,17.81
2017-06-06T13:51:10.001Z,17.93
2017-06-06T13:52:19.582Z,17.99
2017-06-06T13:53:28.538Z,17.99
2017-06-06T13:54:37.796Z,18.02
2017-06-06T13:55:46.694Z,18.17
2017-06-06T13:56:55.589Z,18.23
2017-06-06T13:58:04.491Z,18.23
2017-06-06T13:59:14.088Z,18.23
2017-06-06T14:00:23.658Z,18.07
2017-06-06T14:01:32.555Z,18.07
2017-06-06T14:02:41.778Z,18.11
2017-06-06T14:03:50.675Z,18.08
2017-06-06T14:04:59.573Z,17.86
2017-06-06T14:06:08.533Z,17.74
2017-06-06T14:07:17.437Z,17.7
2017-06-06T14:08:26.340Z,17.74
2017-06-06T14:09:35.261Z,17.66
2017-06-06T14:10:44.492Z,17.55
2017-06-06T14:11:53.403Z,17.43
2017-06-06T14:13:02.628Z,17.41
2017-06-06T14:14:11.865Z,17.22
2017-06-06T14:15:21.414Z,17.16
2017-06-06T14:16:30.609Z,17.18
2017-06-06T14:17:39.830Z,17.19
2017-06-06T14:18:48.776Z,17.15
2017-06-06T14:19:58.006Z,17.15
2017-06-06T14:21:06.911Z,17.15
2017-06-06T14:22:16.286Z,17.15
2017-06-06T14:23:25.845Z,17.11
2017-06-06T14:24:34.755Z,17.06
2017-06-06T14:25:44.308Z,17.04
2017-06-06T14:26:53.207Z,16.98
2017-06-06T14:28:02.260Z,17
2017-06-06T14:29:11.155Z,17.06
2017-06-06T14:30:20.381Z,17.08
2017-06-06T14:31:29.612Z,17.08
2017-06-06T14:32:38.515Z,17.08
2017-06-06T14:33:47.411Z,16.98
2017-06-06T14:34:56.642Z,17
2017-06-06T14:36:05.542Z,17.03
2017-06-06T14:37:14.437Z,17.03
2017-06-06T14:38:23.328Z,17.14
2017-06-06T14:39:32.475Z,17.06
2017-06-06T14:40:41.437Z,17.14
2017-06-06T14:41:50.344Z,17.06
2017-06-06T14:42:59.324Z,17.15
2017-06-06T14:44:08.255Z,17.34
2017-06-06T14:45:17.281Z,17.33
2017-06-06T14:46:26.221Z,17.34
2017-06-06T14:47:35.143Z,17.4
2017-06-06T14:48:44.403Z,17.56
2017-06-06T14:49:53.367Z,17.63
2017-06-06T14:51:02.541Z,17.97
2017-06-06T14:52:12.085Z,18.23